Terminal Aerodrome Forecast
Issued by NWS

Home | Current Version | Previous Version | Text Only | Print | Product List | Glossary On
Versions: 1 2 3 4 5 6 7 8 9 10 11 12 13 14 15 16 17 18 19 20 21 22
000
FTUS43 KGRR 212000 AAA
TAFLAN
TAF AMD
KLAN 212021Z 2120/2218 VRB04KT P6SM OVC025
     FM212100 16005KT P6SM -SHRA VCTS OVC025CB
     FM220000 17005KT P6SM SCT060 BKN120
     FM220600 17005KT P6SM VCTS SCT035CB BKN060
     FM221300 17005KT P6SM SCT060 BKN120=

USA.gov is the U.S. government's official web portal to all federal, state and local government web resources and services.